Time;durP1;ratioP1;P1;durP2;ratioP2;P2;SDS_P1;SDS_P2;PMS_P1;PMS_P2;Temp;Humidity;BMP_temperature;BMP_pressure;BME280_temperature;BME280_humidity;BME280_pressure;Samples;Min_cycle;Max_cycle;Signal;HPM_P1;HPM_P2
2022/01/30 00:00:12;;;;;;;1.30;1.20;;;;;;;;;;6295781;22;20176;-86
2022/01/30 00:02:40;;;;;;;1.23;1.13;;;;;;;;;;6296595;22;20187;-85
2022/01/30 00:05:09;;;;;;;1.17;1.10;;;;;;;;;;6294846;22;20245;-86
2022/01/30 00:07:36;;;;;;;1.10;1.10;;;;;;;;;;6294119;22;20198;-86
2022/01/30 00:10:06;;;;;;;1.57;1.10;;;;;;;;;;6295507;22;20194;-84
2022/01/30 00:12:43;;;;;;;1.40;1.20;;;;;;;;;;6293125;22;20635;-83
2022/01/30 00:15:11;;;;;;;1.00;1.00;;;;;;;;;;6284900;22;20252;-85
2022/01/30 00:17:44;;;;;;;1.57;1.10;;;;;;;;;;6283531;22;20175;-85
2022/01/30 00:20:18;;;;;;;1.03;1.03;;;;;;;;;;6285336;22;20243;-85
2022/01/30 00:22:50;;;;;;;1.10;1.10;;;;;;;;;;6285612;22;20180;-85
2022/01/30 00:25:25;;;;;;;1.40;1.30;;;;;;;;;;6285383;22;20199;-83
2022/01/30 00:28:02;;;;;;;1.20;1.10;;;;;;;;;;6283733;22;20167;-85
2022/01/30 00:30:33;;;;;;;1.40;1.30;;;;;;;;;;6285920;22;20168;-85
2022/01/30 00:33:01;;;;;;;1.40;1.30;;;;;;;;;;6285877;22;20202;-85
2022/01/30 00:35:28;;;;;;;1.60;1.50;;;;;;;;;;6284946;22;20192;-84
2022/01/30 00:37:55;;;;;;;1.37;1.27;;;;;;;;;;6283612;22;20226;-81
2022/01/30 00:40:23;;;;;;;1.60;1.30;;;;;;;;;;6284300;22;20192;-82
2022/01/30 00:42:50;;;;;;;1.53;1.40;;;;;;;;;;6282920;22;20209;-85
2022/01/30 00:45:19;;;;;;;1.30;1.20;;;;;;;;;;6281957;22;20195;-85
2022/01/30 00:47:46;;;;;;;1.10;1.10;;;;;;;;;;6280515;22;20172;-85
2022/01/30 00:53:29;;;;;;;1.20;1.20;;;;;;;;;;6186651;23;20154;-83
2022/01/30 00:55:56;;;;;;;1.37;1.27;;;;;;;;;;6187967;23;20224;-85
2022/01/30 00:58:24;;;;;;;1.20;1.10;;;;;;;;;;6190384;23;20174;-83
2022/01/30 01:00:53;;;;;;;1.40;1.30;;;;;;;;;;6195806;23;20234;-85
2022/01/30 01:03:20;;;;;;;1.73;1.43;;;;;;;;;;6185379;23;20170;-83
2022/01/30 01:05:48;;;;;;;1.70;1.60;;;;;;;;;;6186361;23;20201;-83
2022/01/30 01:08:21;;;;;;;1.53;1.30;;;;;;;;;;6204762;23;20181;-85
2022/01/30 01:11:25;;;;;;;1.57;1.47;;;;;;;;;;6193358;23;20273;-84
2022/01/30 01:24:58;;;;;;;1.60;1.50;;;;;;;;;;6138915;23;20204;-83
2022/01/30 01:27:26;;;;;;;2.17;1.73;;;;;;;;;;6239323;22;20194;-84
2022/01/30 01:29:54;;;;;;;2.00;1.60;;;;;;;;;;6284957;22;20171;-84
2022/01/30 01:32:23;;;;;;;1.60;1.50;;;;;;;;;;6293440;22;20241;-87
2022/01/30 01:34:50;;;;;;;2.90;1.40;;;;;;;;;;6293107;22;20242;-84
2022/01/30 01:37:18;;;;;;;1.60;1.50;;;;;;;;;;6284273;22;20168;-85
2022/01/30 01:39:45;;;;;;;1.60;1.50;;;;;;;;;;6284276;22;20198;-85
2022/01/30 01:42:16;;;;;;;2.33;2.13;;;;;;;;;;6283602;22;20179;-85
2022/01/30 01:44:47;;;;;;;3.23;2.30;;;;;;;;;;6284003;22;20188;-85
2022/01/30 01:47:17;;;;;;;1.70;1.60;;;;;;;;;;6280312;22;20187;-85
2022/01/30 01:49:47;;;;;;;2.07;1.80;;;;;;;;;;6281479;22;20174;-86
2022/01/30 01:52:19;;;;;;;2.00;1.90;;;;;;;;;;6220952;23;20161;-86
2022/01/30 01:54:47;;;;;;;1.87;1.67;;;;;;;;;;6249437;23;20196;-85
2022/01/30 01:57:14;;;;;;;2.13;1.93;;;;;;;;;;6249273;23;20168;-86
2022/01/30 01:59:42;;;;;;;2.03;1.80;;;;;;;;;;6250004;23;20252;-86
2022/01/30 02:02:10;;;;;;;2.10;1.80;;;;;;;;;;6250646;23;20180;-85
2022/01/30 02:04:40;;;;;;;2.30;1.60;;;;;;;;;;6249088;23;20192;-85
2022/01/30 02:09:54;;;;;;;1.83;1.70;;;;;;;;;;6249500;23;20214;-85
2022/01/30 02:12:28;;;;;;;1.33;1.23;;;;;;;;;;6249184;23;20176;-85
2022/01/30 02:15:10;;;;;;;1.50;1.40;;;;;;;;;;6249824;23;20188;-83
2022/01/30 02:26:00;;;;;;;1.20;1.20;;;;;;;;;;6267589;23;20263;-85
2022/01/30 02:28:29;;;;;;;1.30;1.20;;;;;;;;;;6268473;23;20188;-86
2022/01/30 02:31:01;;;;;;;1.63;1.13;;;;;;;;;;6255187;23;20184;-85
2022/01/30 02:33:29;;;;;;;1.30;1.20;;;;;;;;;;6253995;23;20223;-86
2022/01/30 02:35:56;;;;;;;1.00;1.00;;;;;;;;;;6253518;23;20215;-85
2022/01/30 02:38:25;;;;;;;1.60;1.50;;;;;;;;;;6252904;23;20169;-86
2022/01/30 02:40:55;;;;;;;1.73;1.47;;;;;;;;;;6252458;23;20173;-85
2022/01/30 02:43:27;;;;;;;1.70;1.60;;;;;;;;;;6253760;23;20219;-84
2022/01/30 02:46:05;;;;;;;1.93;1.83;;;;;;;;;;6258705;23;20188;-84
2022/01/30 02:48:46;;;;;;;2.00;1.90;;;;;;;;;;6252797;23;20171;-85
2022/01/30 02:51:15;;;;;;;1.90;1.70;;;;;;;;;;6252450;23;20176;-84
2022/01/30 02:53:53;;;;;;;1.73;1.63;;;;;;;;;;6247665;23;20182;-85
2022/01/30 02:56:21;;;;;;;1.77;1.67;;;;;;;;;;6247987;23;20157;-82
2022/01/30 02:58:48;;;;;;;2.00;1.80;;;;;;;;;;6247585;23;20184;-85
2022/01/30 03:01:16;;;;;;;2.97;1.80;;;;;;;;;;6248221;23;20179;-84
2022/01/30 03:03:43;;;;;;;2.77;1.97;;;;;;;;;;6247371;23;20177;-85
2022/01/30 03:06:10;;;;;;;2.17;1.87;;;;;;;;;;6246866;23;20199;-84
2022/01/30 03:08:38;;;;;;;2.40;1.80;;;;;;;;;;6247745;23;20177;-85
2022/01/30 03:11:07;;;;;;;1.80;1.70;;;;;;;;;;6247715;23;20169;-84
2022/01/30 03:13:34;;;;;;;2.73;1.67;;;;;;;;;;6250859;23;20173;-86
2022/01/30 03:16:03;;;;;;;1.70;1.53;;;;;;;;;;6259680;23;20695;-85
2022/01/30 03:18:31;;;;;;;2.10;1.63;;;;;;;;;;6259744;23;20189;-86
2022/01/30 03:20:58;;;;;;;2.17;1.47;;;;;;;;;;6261333;23;20229;-86
2022/01/30 03:23:26;;;;;;;2.73;1.50;;;;;;;;;;6264201;23;20182;-87
2022/01/30 07:07:46;;;;;;;5.70;3.20;;;;;;;;;;6242496;23;20239;-89
2022/01/30 07:10:39;;;;;;;8.53;3.33;;;;;;;;;;6246624;23;20248;-89
2022/01/30 07:25:40;;;;;;;9.10;3.27;;;;;;;;;;6153225;23;20171;-90
2022/01/30 07:28:46;;;;;;;;;;;;;;;;;;;;;
2022/01/30 07:31:33;;;;;;;4.73;3.37;;;;;;;;;;6065229;23;20189;-90
2022/01/30 07:37:00;;;;;;;6.27;3.70;;;;;;;;;;6148800;23;20187;-89
2022/01/30 07:49:02;;;;;;;;;;;;;;;;;;;;;
2022/01/30 07:51:49;;;;;;;7.50;4.90;;;;;;;;;;6153359;23;20178;-89
2022/01/30 07:57:52;;;;;;;8.17;4.40;;;;;;;;;;6034114;23;20200;-89
2022/01/30 08:37:22;;;;;;;6.53;4.07;;;;;;;;;;6107108;22;20214;-88
2022/01/30 08:39:51;;;;;;;9.40;3.27;;;;;;;;;;6246671;23;20239;-89
2022/01/30 08:42:18;;;;;;;9.00;3.20;;;;;;;;;;6246907;23;20172;-89
2022/01/30 08:44:52;;;;;;;8.20;3.20;;;;;;;;;;6246687;23;20227;-89
2022/01/30 08:47:20;;;;;;;11.63;3.90;;;;;;;;;;6246306;23;20197;-89
2022/01/30 08:49:55;;;;;;;7.87;2.97;;;;;;;;;;6245121;23;20172;-89
2022/01/30 08:52:29;;;;;;;6.67;3.10;;;;;;;;;;6245476;23;20207;-89
2022/01/30 08:55:10;;;;;;;9.00;3.27;;;;;;;;;;6247371;23;20172;-89
2022/01/30 08:57:38;;;;;;;7.73;3.27;;;;;;;;;;6245977;23;20188;-88
2022/01/30 09:00:18;;;;;;;8.47;3.60;;;;;;;;;;6247500;23;20173;-88
2022/01/30 09:02:45;;;;;;;7.33;3.00;;;;;;;;;;6247305;23;20172;-89
2022/01/30 09:05:24;;;;;;;9.73;3.40;;;;;;;;;;6245731;23;20196;-89
2022/01/30 09:07:55;;;;;;;8.70;3.00;;;;;;;;;;6243923;23;20204;-89
2022/01/30 09:10:22;;;;;;;8.83;3.10;;;;;;;;;;6245493;23;20169;-89
2022/01/30 09:12:52;;;;;;;13.20;3.63;;;;;;;;;;6243862;23;20180;-89
2022/01/30 09:15:19;;;;;;;9.33;3.37;;;;;;;;;;6243959;23;20254;-89
2022/01/30 09:17:53;;;;;;;9.33;3.03;;;;;;;;;;6243944;23;20189;-89
2022/01/30 09:20:28;;;;;;;8.47;3.00;;;;;;;;;;6245654;23;20172;-89
2022/01/30 09:23:02;;;;;;;9.57;3.43;;;;;;;;;;6245036;23;20160;-89
2022/01/30 09:25:32;;;;;;;7.60;3.23;;;;;;;;;;6246298;23;20177;-89
2022/01/30 09:28:02;;;;;;;8.93;2.93;;;;;;;;;;6244537;23;20195;-90
2022/01/30 09:36:24;;;;;;;7.03;2.80;;;;;;;;;;6208499;23;20188;-90
2022/01/30 09:39:01;;;;;;;6.90;2.97;;;;;;;;;;6244774;23;20211;-91
2022/01/30 09:41:41;;;;;;;8.50;3.47;;;;;;;;;;6248048;23;20171;-91
2022/01/30 09:44:12;;;;;;;6.23;3.27;;;;;;;;;;6244577;22;20196;-84
2022/01/30 09:46:42;;;;;;;8.80;3.30;;;;;;;;;;6253358;23;20173;-84
2022/01/30 09:49:21;;;;;;;8.87;3.50;;;;;;;;;;6252462;23;20267;-85
2022/01/30 09:51:48;;;;;;;11.00;3.60;;;;;;;;;;6256205;23;20175;-82
2022/01/30 09:54:17;;;;;;;10.73;3.27;;;;;;;;;;6257135;23;20208;-85
2022/01/30 09:56:44;;;;;;;5.93;3.00;;;;;;;;;;6254013;23;20168;-85
2022/01/30 09:59:14;;;;;;;9.53;3.40;;;;;;;;;;6254630;23;20174;-85
2022/01/30 10:01:42;;;;;;;8.50;3.40;;;;;;;;;;6254665;23;20172;-85
2022/01/30 10:04:14;;;;;;;11.93;3.80;;;;;;;;;;6254652;23;20192;-85
2022/01/30 10:07:00;;;;;;;5.47;2.67;;;;;;;;;;6254479;23;20173;-85
2022/01/30 10:09:34;;;;;;;9.73;3.50;;;;;;;;;;6255350;23;20243;-84
2022/01/30 10:12:16;;;;;;;7.57;2.90;;;;;;;;;;6253709;23;20165;-85
2022/01/30 10:14:54;;;;;;;9.10;3.20;;;;;;;;;;6256654;23;20176;-84
2022/01/30 10:17:29;;;;;;;9.03;3.20;;;;;;;;;;6258154;23;20199;-82
2022/01/30 10:20:17;;;;;;;8.23;3.00;;;;;;;;;;6263549;23;20172;-86
2022/01/30 10:22:55;;;;;;;7.13;2.97;;;;;;;;;;6244959;23;20248;-85
2022/01/30 10:25:31;;;;;;;6.17;2.80;;;;;;;;;;6252997;23;20223;-85
2022/01/30 10:28:06;;;;;;;7.97;2.43;;;;;;;;;;6250532;23;20172;-87
2022/01/30 10:30:46;;;;;;;8.77;2.80;;;;;;;;;;6251543;23;20179;-84
2022/01/30 10:33:15;;;;;;;6.77;2.70;;;;;;;;;;6249938;23;20185;-86
2022/01/30 10:35:51;;;;;;;12.17;2.77;;;;;;;;;;6251930;23;20173;-86
2022/01/30 10:38:28;;;;;;;9.40;2.60;;;;;;;;;;6250756;23;20191;-84
2022/01/30 10:41:12;;;;;;;8.93;2.70;;;;;;;;;;6252916;23;20183;-87
2022/01/30 10:43:49;;;;;;;8.33;2.70;;;;;;;;;;6252949;23;20200;-86
2022/01/30 10:46:20;;;;;;;7.47;2.77;;;;;;;;;;6252769;23;20172;-82
2022/01/30 10:48:59;;;;;;;8.03;2.70;;;;;;;;;;6254167;23;20247;-85
2022/01/30 10:51:30;;;;;;;7.60;2.80;;;;;;;;;;6253766;23;20199;-83
2022/01/30 10:53:58;;;;;;;8.03;2.50;;;;;;;;;;6252851;23;20241;-87
2022/01/30 10:56:28;;;;;;;7.03;2.60;;;;;;;;;;6254264;23;20168;-86
2022/01/30 10:59:09;;;;;;;7.93;2.83;;;;;;;;;;6255424;23;20161;-85
2022/01/30 11:01:40;;;;;;;9.80;2.77;;;;;;;;;;6258754;23;20168;-85
2022/01/30 11:04:14;;;;;;;7.30;3.20;;;;;;;;;;6260697;23;20196;-84
2022/01/30 11:06:42;;;;;;;8.23;2.70;;;;;;;;;;6249956;23;20199;-87
2022/01/30 11:09:22;;;;;;;7.47;2.87;;;;;;;;;;6247876;23;20191;-87
2022/01/30 11:11:57;;;;;;;7.23;2.60;;;;;;;;;;6248471;23;20247;-86
2022/01/30 11:14:35;;;;;;;10.73;2.97;;;;;;;;;;6257425;23;20214;-86
2022/01/30 11:17:09;;;;;;;7.73;3.23;;;;;;;;;;6255082;23;20182;-86
2022/01/30 11:19:38;;;;;;;8.43;3.10;;;;;;;;;;6254606;23;20172;-87
2022/01/30 11:22:10;;;;;;;7.23;2.80;;;;;;;;;;6259696;23;20173;-87
2022/01/30 11:24:51;;;;;;;9.60;3.23;;;;;;;;;;6259072;23;20588;-86
2022/01/30 11:27:24;;;;;;;12.23;3.47;;;;;;;;;;6259119;23;20172;-85
2022/01/30 11:29:53;;;;;;;7.47;2.97;;;;;;;;;;6252958;23;20206;-85
2022/01/30 11:32:23;;;;;;;6.27;2.47;;;;;;;;;;6251508;23;20271;-86
2022/01/30 11:38:04;;;;;;;7.30;3.00;;;;;;;;;;6245958;23;20165;-86
2022/01/30 11:40:38;;;;;;;9.10;2.80;;;;;;;;;;6252759;23;20177;-87
2022/01/30 11:43:15;;;;;;;8.47;3.20;;;;;;;;;;6251662;23;20223;-87
2022/01/30 11:45:42;;;;;;;8.77;3.00;;;;;;;;;;6249000;23;20178;-86
2022/01/30 11:48:13;;;;;;;5.47;3.00;;;;;;;;;;6246530;23;20188;-85
2022/01/30 11:50:44;;;;;;;10.60;3.00;;;;;;;;;;6246086;23;20226;-89
2022/01/30 11:53:13;;;;;;;9.87;3.00;;;;;;;;;;6247760;23;20718;-89
2022/01/30 11:55:49;;;;;;;10.67;3.33;;;;;;;;;;6246872;23;20172;-88
2022/01/30 11:58:35;;;;;;;8.90;3.10;;;;;;;;;;6246052;23;20175;-87
2022/01/30 12:01:05;;;;;;;12.40;3.40;;;;;;;;;;6246074;23;20222;-88
2022/01/30 12:03:47;;;;;;;7.47;2.80;;;;;;;;;;6246548;23;20188;-87
2022/01/30 12:06:30;;;;;;;7.53;3.27;;;;;;;;;;6244436;23;20589;-87
2022/01/30 12:08:59;;;;;;;9.30;2.90;;;;;;;;;;6245175;23;20188;-86
2022/01/30 12:11:47;;;;;;;9.70;2.80;;;;;;;;;;6246444;23;20244;-88
2022/01/30 12:14:29;;;;;;;5.17;2.50;;;;;;;;;;6246297;23;20200;-88
2022/01/30 12:17:00;;;;;;;4.70;2.27;;;;;;;;;;6243739;23;20173;-88
2022/01/30 12:19:44;;;;;;;6.10;2.53;;;;;;;;;;6246593;23;20163;-87
2022/01/30 12:22:29;;;;;;;6.67;2.50;;;;;;;;;;6245310;23;20173;-87
2022/01/30 12:25:19;;;;;;;6.53;2.70;;;;;;;;;;6245239;23;20192;-89
2022/01/30 12:27:50;;;;;;;6.27;2.70;;;;;;;;;;6245937;23;20169;-89
2022/01/30 12:30:51;;;;;;;5.53;2.30;;;;;;;;;;6246778;23;20513;-87
2022/01/30 12:33:48;;;;;;;11.97;3.13;;;;;;;;;;6123058;23;20195;-87
2022/01/30 12:36:25;;;;;;;5.50;2.50;;;;;;;;;;6123496;23;20187;-87
2022/01/30 12:38:54;;;;;;;8.97;2.50;;;;;;;;;;6212247;23;20168;-88
2022/01/30 12:41:22;;;;;;;8.40;3.10;;;;;;;;;;6245415;23;20168;-87
2022/01/30 12:43:56;;;;;;;7.97;2.50;;;;;;;;;;6244533;23;20222;-88
2022/01/30 12:46:24;;;;;;;7.43;2.70;;;;;;;;;;6245203;23;20160;-87
2022/01/30 12:49:10;;;;;;;6.33;2.77;;;;;;;;;;6245371;23;20208;-87
2022/01/30 12:51:39;;;;;;;7.43;2.47;;;;;;;;;;6247192;23;20172;-87
2022/01/30 12:54:08;;;;;;;6.40;2.70;;;;;;;;;;6248109;23;20193;-87
2022/01/30 12:56:37;;;;;;;7.63;2.60;;;;;;;;;;6247618;23;20173;-88
2022/01/30 12:59:09;;;;;;;5.73;2.53;;;;;;;;;;6254642;23;20169;-87
2022/01/30 13:01:39;;;;;;;6.53;2.80;;;;;;;;;;6248606;23;20176;-87
2022/01/30 13:04:13;;;;;;;6.50;2.67;;;;;;;;;;6249150;23;20192;-86
2022/01/30 13:06:44;;;;;;;8.43;2.57;;;;;;;;;;6247219;23;20165;-87
2022/01/30 13:09:12;;;;;;;7.23;2.53;;;;;;;;;;6249402;23;20207;-86
2022/01/30 13:11:39;;;;;;;7.90;3.63;;;;;;;;;;6254769;23;20176;-83
2022/01/30 13:14:15;;;;;;;5.97;2.27;;;;;;;;;;6255841;23;20192;-86
2022/01/30 13:16:43;;;;;;;7.90;2.70;;;;;;;;;;6253514;23;20178;-84
2022/01/30 13:19:12;;;;;;;7.07;2.67;;;;;;;;;;6254099;23;20255;-87
2022/01/30 13:21:40;;;;;;;7.93;2.47;;;;;;;;;;6257926;23;20187;-86
2022/01/30 13:24:09;;;;;;;10.40;3.20;;;;;;;;;;6258331;23;20202;-87
2022/01/30 13:26:40;;;;;;;7.80;3.63;;;;;;;;;;6267697;22;20168;-87
2022/01/30 13:29:09;;;;;;;10.70;2.90;;;;;;;;;;6259506;23;20188;-86
2022/01/30 13:31:42;;;;;;;14.10;4.07;;;;;;;;;;6246394;23;20224;-85
2022/01/30 13:34:16;;;;;;;7.63;2.37;;;;;;;;;;6246626;23;20196;-87
2022/01/30 13:36:52;;;;;;;8.50;4.40;;;;;;;;;;6244315;23;20177;-86
2022/01/30 13:39:28;;;;;;;9.70;3.63;;;;;;;;;;6244733;23;20168;-86
2022/01/30 13:42:28;;;;;;;7.93;3.47;;;;;;;;;;6245355;23;20168;-85
2022/01/30 13:46:53;;;;;;;9.90;3.33;;;;;;;;;;6246142;23;20176;-87
2022/01/30 13:47:52;;;;;;;7.73;3.00;;;;;;;;;;6244492;23;20179;-87
2022/01/30 13:50:28;;;;;;;11.80;2.73;;;;;;;;;;6244832;23;20215;-83
2022/01/30 13:53:03;;;;;;;8.13;2.80;;;;;;;;;;6247863;23;20699;-86
2022/01/30 13:55:52;;;;;;;6.93;2.50;;;;;;;;;;6245570;23;20255;-86
2022/01/30 13:58:30;;;;;;;5.50;2.30;;;;;;;;;;6245125;23;20248;-85
2022/01/30 14:00:59;;;;;;;8.67;2.50;;;;;;;;;;6245333;23;20168;-88
2022/01/30 14:03:27;;;;;;;4.80;2.40;;;;;;;;;;6244645;23;20271;-85
2022/01/30 14:05:57;;;;;;;8.97;2.70;;;;;;;;;;6248592;23;20226;-86
2022/01/30 14:08:25;;;;;;;8.37;2.60;;;;;;;;;;6246495;23;20177;-86
2022/01/30 14:11:05;;;;;;;5.53;2.63;;;;;;;;;;6250132;23;20176;-85
2022/01/30 14:13:41;;;;;;;9.53;2.80;;;;;;;;;;6250013;23;20250;-86
2022/01/30 14:16:13;;;;;;;5.83;2.57;;;;;;;;;;6248725;23;20168;-83
2022/01/30 14:18:53;;;;;;;8.20;2.43;;;;;;;;;;6247664;23;20172;-85
2022/01/30 14:21:24;;;;;;;6.93;2.40;;;;;;;;;;6253942;23;20243;-86
2022/01/30 14:23:51;;;;;;;7.20;2.40;;;;;;;;;;6247818;23;20188;-85
2022/01/30 14:26:22;;;;;;;7.13;2.87;;;;;;;;;;6252074;23;20176;-85
2022/01/30 14:28:50;;;;;;;6.83;2.53;;;;;;;;;;6249553;23;20188;-86
2022/01/30 14:31:18;;;;;;;8.00;2.80;;;;;;;;;;6252540;23;20177;-85
2022/01/30 14:33:47;;;;;;;7.67;2.77;;;;;;;;;;6252133;23;20208;-85
2022/01/30 14:36:21;;;;;;;6.00;2.20;;;;;;;;;;6251496;23;20223;-85
2022/01/30 14:38:53;;;;;;;5.93;2.50;;;;;;;;;;6250908;23;20197;-85
2022/01/30 14:41:20;;;;;;;5.83;2.30;;;;;;;;;;6252496;23;20200;-85
2022/01/30 14:43:48;;;;;;;6.30;2.53;;;;;;;;;;6251700;23;20204;-86
2022/01/30 14:46:18;;;;;;;7.60;2.37;;;;;;;;;;6253395;23;20169;-86
2022/01/30 14:48:47;;;;;;;7.37;2.20;;;;;;;;;;6250374;23;20196;-86
2022/01/30 14:51:15;;;;;;;8.13;2.80;;;;;;;;;;6251327;23;20176;-85
2022/01/30 14:53:42;;;;;;;7.20;2.40;;;;;;;;;;6250884;23;20192;-86
2022/01/30 14:56:11;;;;;;;10.53;2.70;;;;;;;;;;6251104;23;20169;-85
2022/01/30 14:58:38;;;;;;;6.63;2.47;;;;;;;;;;6251274;23;20177;-85
2022/01/30 15:01:06;;;;;;;8.43;3.13;;;;;;;;;;6252152;23;20165;-84
2022/01/30 15:03:38;;;;;;;7.50;3.27;;;;;;;;;;6252933;23;20244;-85
2022/01/30 15:06:05;;;;;;;9.10;3.13;;;;;;;;;;6249174;23;20167;-84
2022/01/30 15:08:34;;;;;;;5.03;2.67;;;;;;;;;;6256486;23;20165;-86
2022/01/30 15:11:02;;;;;;;7.60;2.90;;;;;;;;;;6254782;23;20173;-86
2022/01/30 15:13:35;;;;;;;5.63;2.53;;;;;;;;;;6255737;23;20193;-86
2022/01/30 15:16:07;;;;;;;8.07;2.80;;;;;;;;;;6259678;23;20228;-86
2022/01/30 15:18:42;;;;;;;7.67;2.60;;;;;;;;;;6261480;23;20179;-86
2022/01/30 15:21:10;;;;;;;8.87;2.73;;;;;;;;;;6261770;23;20171;-86
2022/01/30 15:23:37;;;;;;;7.77;2.87;;;;;;;;;;6258504;23;20197;-86
2022/01/30 15:26:05;;;;;;;8.10;2.50;;;;;;;;;;6251049;23;20199;-86
2022/01/30 15:28:35;;;;;;;6.67;2.43;;;;;;;;;;6252187;23;20173;-86
2022/01/30 15:31:02;;;;;;;10.73;3.03;;;;;;;;;;6250158;23;20176;-86
2022/01/30 15:33:30;;;;;;;7.93;3.00;;;;;;;;;;6252106;23;20188;-86
2022/01/30 15:35:58;;;;;;;10.33;3.43;;;;;;;;;;6252064;23;20169;-86
2022/01/30 15:38:27;;;;;;;10.57;2.80;;;;;;;;;;6250973;23;20173;-86
2022/01/30 15:40:57;;;;;;;8.03;2.73;;;;;;;;;;6252720;23;20183;-85
2022/01/30 17:20:55;;;;;;;19.73;11.70;;;;;;;;;;6201788;23;20209;-84
2022/01/30 18:05:17;;;;;;;11.17;4.27;;;;;;;;;;6183793;23;20299;-90
2022/01/30 18:17:04;;;;;;;;;;;;;;;;;;;;;
2022/01/30 18:19:53;;;;;;;10.37;4.37;;;;;;;;;;6244796;23;20168;-87
2022/01/30 18:28:07;;;;;;;7.87;4.30;;;;;;;;;;6241072;23;20252;-87
2022/01/30 19:03:49;;;;;;;12.40;6.17;;;;;;;;;;6151181;23;20203;-88
2022/01/30 19:12:30;;;;;;;10.50;5.87;;;;;;;;;;6219299;23;20178;-87
2022/01/30 19:15:23;;;;;;;8.77;5.83;;;;;;;;;;6222107;23;20221;-86
2022/01/30 19:17:52;;;;;;;10.90;5.13;;;;;;;;;;6221270;23;20173;-86
2022/01/30 19:35:47;;;;;;;9.90;6.13;;;;;;;;;;6237573;23;20176;-86
2022/01/30 19:42:15;;;;;;;14.10;5.97;;;;;;;;;;6195511;23;20206;-86
2022/01/30 19:44:52;;;;;;;9.73;5.97;;;;;;;;;;6254247;22;20224;-86
2022/01/30 19:47:54;;;;;;;8.90;5.27;;;;;;;;;;6255059;23;20227;-85
2022/01/30 19:50:32;;;;;;;7.53;5.13;;;;;;;;;;6254159;23;20218;-86
2022/01/30 19:56:04;;;;;;;10.00;5.83;;;;;;;;;;6243780;23;20181;-86
2022/01/30 19:58:38;;;;;;;13.30;6.13;;;;;;;;;;6252546;23;20214;-86
2022/01/30 20:04:32;;;;;;;10.10;5.67;;;;;;;;;;6236766;23;20207;-86
2022/01/30 20:07:06;;;;;;;10.57;5.90;;;;;;;;;;6254994;23;20173;-86
2022/01/30 20:09:35;;;;;;;9.73;5.10;;;;;;;;;;6252865;23;20176;-86
2022/01/30 20:12:12;;;;;;;11.27;5.53;;;;;;;;;;6255562;23;20183;-85
2022/01/30 20:29:39;;;;;;;11.27;4.87;;;;;;;;;;6236950;23;20652;-86
2022/01/30 20:37:51;;;;;;;12.57;5.57;;;;;;;;;;6237945;22;20668;-88
2022/01/30 20:40:44;;;;;;;9.90;5.67;;;;;;;;;;6247605;23;20180;-88
2022/01/30 20:43:39;;;;;;;11.93;5.30;;;;;;;;;;6250523;23;20242;-89
2022/01/30 20:46:27;;;;;;;13.33;6.00;;;;;;;;;;6238155;23;20240;-89
2022/01/30 22:17:17;;;;;;;7.93;5.17;;;;;;;;;;6183991;22;20212;-83
2022/01/30 22:19:46;;;;;;;12.57;6.93;;;;;;;;;;6245353;23;20243;-84
2022/01/30 22:22:14;;;;;;;10.50;6.07;;;;;;;;;;6245250;23;20175;-86
2022/01/30 22:24:41;;;;;;;10.70;5.73;;;;;;;;;;6245535;23;20184;-86
2022/01/30 22:27:08;;;;;;;9.50;5.80;;;;;;;;;;6245255;23;20589;-85
2022/01/30 22:29:36;;;;;;;10.10;5.73;;;;;;;;;;6246649;23;20176;-87
2022/01/30 22:32:03;;;;;;;8.87;5.70;;;;;;;;;;6246970;23;20193;-86
2022/01/30 22:34:32;;;;;;;10.13;5.30;;;;;;;;;;6247323;23;20183;-86
2022/01/30 22:36:59;;;;;;;9.83;5.40;;;;;;;;;;6248613;23;20183;-87
2022/01/30 22:39:27;;;;;;;10.10;5.80;;;;;;;;;;6249521;23;20196;-85
2022/01/30 22:41:54;;;;;;;9.90;5.00;;;;;;;;;;6254334;23;20175;-87
2022/01/30 22:44:21;;;;;;;8.00;4.90;;;;;;;;;;6263408;23;20185;-87
2022/01/30 22:46:49;;;;;;;7.73;4.60;;;;;;;;;;6257975;23;20174;-86
2022/01/30 22:49:17;;;;;;;8.17;4.83;;;;;;;;;;6259541;23;20192;-87
2022/01/30 22:51:46;;;;;;;7.00;4.37;;;;;;;;;;6258797;23;20216;-87
2022/01/30 22:54:13;;;;;;;6.47;4.33;;;;;;;;;;6270337;22;20174;-88
2022/01/30 22:56:40;;;;;;;9.47;4.30;;;;;;;;;;6270914;22;20156;-85
2022/01/30 22:59:08;;;;;;;6.70;4.40;;;;;;;;;;6254381;23;20192;-87
2022/01/30 23:01:35;;;;;;;9.97;4.60;;;;;;;;;;6248165;23;20180;-87
2022/01/30 23:04:02;;;;;;;9.97;4.53;;;;;;;;;;6247346;23;20173;-87
2022/01/30 23:06:29;;;;;;;11.00;5.50;;;;;;;;;;6247221;23;20299;-86
2022/01/30 23:08:58;;;;;;;7.70;4.60;;;;;;;;;;6246009;23;20193;-87
2022/01/30 23:11:25;;;;;;;7.27;4.47;;;;;;;;;;6246344;23;20192;-87
2022/01/30 23:13:53;;;;;;;9.53;4.33;;;;;;;;;;6246869;23;20172;-89
2022/01/30 23:16:20;;;;;;;9.77;4.47;;;;;;;;;;6250716;23;20177;-87
2022/01/30 23:18:47;;;;;;;12.27;4.80;;;;;;;;;;6266500;23;20201;-87
2022/01/30 23:21:17;;;;;;;7.43;3.80;;;;;;;;;;6269375;23;20244;-88
2022/01/30 23:23:45;;;;;;;8.37;4.13;;;;;;;;;;6268281;23;20177;-87
2022/01/30 23:26:13;;;;;;;6.03;4.53;;;;;;;;;;6262208;23;20222;-87
2022/01/30 23:28:42;;;;;;;7.90;3.93;;;;;;;;;;6254711;23;20200;-87
2022/01/30 23:31:10;;;;;;;7.80;4.43;;;;;;;;;;6247542;23;20224;-87
2022/01/30 23:33:37;;;;;;;7.37;4.00;;;;;;;;;;6246860;23;20173;-88
2022/01/30 23:36:04;;;;;;;9.00;4.00;;;;;;;;;;6246847;23;20231;-88
2022/01/30 23:38:32;;;;;;;9.50;4.17;;;;;;;;;;6246284;23;20208;-88
2022/01/30 23:41:01;;;;;;;8.00;4.23;;;;;;;;;;6246367;23;20176;-87
2022/01/30 23:43:31;;;;;;;7.23;4.10;;;;;;;;;;6246590;23;20172;-87
2022/01/30 23:45:59;;;;;;;9.00;4.30;;;;;;;;;;6245858;23;20192;-88
2022/01/30 23:48:26;;;;;;;7.57;4.13;;;;;;;;;;6245889;23;20189;-87
2022/01/30 23:50:53;;;;;;;8.13;3.93;;;;;;;;;;6246034;23;20188;-87
2022/01/30 23:53:21;;;;;;;7.43;4.27;;;;;;;;;;6246426;23;20169;-88
2022/01/30 23:55:48;;;;;;;8.83;4.20;;;;;;;;;;6246438;23;20169;-87
2022/01/30 23:58:17;;;;;;;7.80;4.00;;;;;;;;;;6246935;23;20227;-87
